sensor_id;sensor_type;location;lat;lon;timestamp;temperature;humidity
39099;DHT22;24844;52.380;7.018;2024-01-30T00:01:02;7.70;99.90
39099;DHT22;24844;52.380;7.018;2024-01-30T00:03:28;7.70;99.90
39099;DHT22;24844;52.380;7.018;2024-01-30T00:05:55;7.80;99.90
39099;DHT22;24844;52.380;7.018;2024-01-30T00:08:21;7.80;99.90
39099;DHT22;24844;52.380;7.018;2024-01-30T00:10:46;7.90;99.90
39099;DHT22;24844;52.380;7.018;2024-01-30T00:13:12;7.90;99.90
39099;DHT22;24844;52.380;7.018;2024-01-30T00:15:39;7.90;99.90
39099;DHT22;24844;52.380;7.018;2024-01-30T00:18:04;7.80;99.90
39099;DHT22;24844;52.380;7.018;2024-01-30T00:20:30;7.80;99.90
39099;DHT22;24844;52.380;7.018;2024-01-30T00:22:56;7.90;99.90
39099;DHT22;24844;52.380;7.018;2024-01-30T00:25:21;7.90;99.90
39099;DHT22;24844;52.380;7.018;2024-01-30T00:27:47;7.80;99.90
39099;DHT22;24844;52.380;7.018;2024-01-30T00:30:12;7.90;99.90
39099;DHT22;24844;52.380;7.018;2024-01-30T00:32:38;7.90;99.90
39099;DHT22;24844;52.380;7.018;2024-01-30T00:35:04;7.90;99.90
39099;DHT22;24844;52.380;7.018;2024-01-30T00:37:30;7.90;99.90
39099;DHT22;24844;52.380;7.018;2024-01-30T00:39:57;7.90;99.90
39099;DHT22;24844;52.380;7.018;2024-01-30T00:42:22;7.90;99.90
39099;DHT22;24844;52.380;7.018;2024-01-30T00:44:49;7.90;99.90
39099;DHT22;24844;52.380;7.018;2024-01-30T00:47:14;8.00;99.90
39099;DHT22;24844;52.380;7.018;2024-01-30T00:49:40;8.00;99.90
39099;DHT22;24844;52.380;7.018;2024-01-30T00:52:06;8.00;99.90
39099;DHT22;24844;52.380;7.018;2024-01-30T00:54:31;8.00;99.90
39099;DHT22;24844;52.380;7.018;2024-01-30T00:56:57;8.10;99.90
39099;DHT22;24844;52.380;7.018;2024-01-30T00:59:22;8.10;99.90
39099;DHT22;24844;52.380;7.018;2024-01-30T01:01:48;8.00;99.90
39099;DHT22;24844;52.380;7.018;2024-01-30T01:04:13;8.20;99.90
39099;DHT22;24844;52.380;7.018;2024-01-30T01:06:39;8.10;99.90
39099;DHT22;24844;52.380;7.018;2024-01-30T01:09:07;8.20;99.90
39099;DHT22;24844;52.380;7.018;2024-01-30T01:11:33;8.20;99.90
39099;DHT22;24844;52.380;7.018;2024-01-30T01:13:59;8.20;99.90
39099;DHT22;24844;52.380;7.018;2024-01-30T01:16:24;8.20;99.90
39099;DHT22;24844;52.380;7.018;2024-01-30T01:18:50;8.20;99.90
39099;DHT22;24844;52.380;7.018;2024-01-30T01:21:15;8.20;99.90
39099;DHT22;24844;52.380;7.018;2024-01-30T01:23:41;8.30;99.90
39099;DHT22;24844;52.380;7.018;2024-01-30T01:26:08;8.30;99.90
39099;DHT22;24844;52.380;7.018;2024-01-30T01:28:35;8.20;99.90
39099;DHT22;24844;52.380;7.018;2024-01-30T01:31:00;8.20;99.90
39099;DHT22;24844;52.380;7.018;2024-01-30T01:33:31;8.20;99.90
39099;DHT22;24844;52.380;7.018;2024-01-30T01:35:58;8.20;99.90
39099;DHT22;24844;52.380;7.018;2024-01-30T01:38:24;8.20;99.90
39099;DHT22;24844;52.380;7.018;2024-01-30T01:40:49;8.10;99.90
39099;DHT22;24844;52.380;7.018;2024-01-30T01:43:15;8.20;99.90
39099;DHT22;24844;52.380;7.018;2024-01-30T01:45:41;8.30;99.90
39099;DHT22;24844;52.380;7.018;2024-01-30T01:48:06;8.40;99.90
39099;DHT22;24844;52.380;7.018;2024-01-30T01:50:33;8.40;99.90
39099;DHT22;24844;52.380;7.018;2024-01-30T01:52:59;8.40;99.90
39099;DHT22;24844;52.380;7.018;2024-01-30T01:55:25;8.40;99.90
39099;DHT22;24844;52.380;7.018;2024-01-30T01:57:53;8.30;99.90
39099;DHT22;24844;52.380;7.018;2024-01-30T02:00:19;8.30;99.90
39099;DHT22;24844;52.380;7.018;2024-01-30T02:02:46;8.30;99.90
39099;DHT22;24844;52.380;7.018;2024-01-30T02:05:12;8.30;99.90
39099;DHT22;24844;52.380;7.018;2024-01-30T02:07:38;8.30;99.90
39099;DHT22;24844;52.380;7.018;2024-01-30T02:10:04;8.20;99.90
39099;DHT22;24844;52.380;7.018;2024-01-30T02:12:30;8.20;99.90
39099;DHT22;24844;52.380;7.018;2024-01-30T02:14:55;8.10;99.90
39099;DHT22;24844;52.380;7.018;2024-01-30T02:17:21;8.10;99.90
39099;DHT22;24844;52.380;7.018;2024-01-30T02:19:48;8.10;99.90
39099;DHT22;24844;52.380;7.018;2024-01-30T02:22:14;8.10;99.90
39099;DHT22;24844;52.380;7.018;2024-01-30T02:24:40;8.00;99.90
39099;DHT22;24844;52.380;7.018;2024-01-30T02:27:06;7.90;99.90
39099;DHT22;24844;52.380;7.018;2024-01-30T02:29:31;7.90;99.90
39099;DHT22;24844;52.380;7.018;2024-01-30T02:31:57;7.90;99.90
39099;DHT22;24844;52.380;7.018;2024-01-30T02:34:23;7.90;99.90
39099;DHT22;24844;52.380;7.018;2024-01-30T02:36:48;7.90;99.90
39099;DHT22;24844;52.380;7.018;2024-01-30T02:39:14;7.90;99.90
39099;DHT22;24844;52.380;7.018;2024-01-30T02:41:40;7.80;99.90
39099;DHT22;24844;52.380;7.018;2024-01-30T02:44:05;7.80;99.90
39099;DHT22;24844;52.380;7.018;2024-01-30T02:46:31;7.80;99.90
39099;DHT22;24844;52.380;7.018;2024-01-30T02:48:56;7.80;99.90
39099;DHT22;24844;52.380;7.018;2024-01-30T02:51:22;7.70;99.90
39099;DHT22;24844;52.380;7.018;2024-01-30T02:53:48;7.70;99.90
39099;DHT22;24844;52.380;7.018;2024-01-30T02:56:13;7.70;99.90
39099;DHT22;24844;52.380;7.018;2024-01-30T02:58:40;7.70;99.90
39099;DHT22;24844;52.380;7.018;2024-01-30T03:01:06;7.70;99.90
39099;DHT22;24844;52.380;7.018;2024-01-30T03:03:32;7.70;99.90
39099;DHT22;24844;52.380;7.018;2024-01-30T03:05:59;7.70;99.90
39099;DHT22;24844;52.380;7.018;2024-01-30T03:08:25;7.70;99.90
39099;DHT22;24844;52.380;7.018;2024-01-30T03:10:50;7.70;99.90
39099;DHT22;24844;52.380;7.018;2024-01-30T03:13:16;7.70;99.90
39099;DHT22;24844;52.380;7.018;2024-01-30T03:15:41;7.80;99.90
39099;DHT22;24844;52.380;7.018;2024-01-30T03:18:07;7.80;99.90
39099;DHT22;24844;52.380;7.018;2024-01-30T03:20:32;7.80;99.90
39099;DHT22;24844;52.380;7.018;2024-01-30T03:23:00;7.70;99.90
39099;DHT22;24844;52.380;7.018;2024-01-30T03:25:26;7.80;99.90
39099;DHT22;24844;52.380;7.018;2024-01-30T03:27:51;7.70;99.90
39099;DHT22;24844;52.380;7.018;2024-01-30T03:30:17;7.70;99.90
39099;DHT22;24844;52.380;7.018;2024-01-30T03:32:43;7.70;99.90
39099;DHT22;24844;52.380;7.018;2024-01-30T03:35:09;7.70;99.90
39099;DHT22;24844;52.380;7.018;2024-01-30T03:37:35;7.70;99.90
39099;DHT22;24844;52.380;7.018;2024-01-30T03:40:01;7.70;99.90
39099;DHT22;24844;52.380;7.018;2024-01-30T03:42:28;7.70;99.90
39099;DHT22;24844;52.380;7.018;2024-01-30T03:44:53;7.70;99.90
39099;DHT22;24844;52.380;7.018;2024-01-30T03:47:20;7.80;99.90
39099;DHT22;24844;52.380;7.018;2024-01-30T03:49:46;7.70;99.90
39099;DHT22;24844;52.380;7.018;2024-01-30T03:52:12;7.70;99.90
39099;DHT22;24844;52.380;7.018;2024-01-30T03:54:37;7.70;99.90
39099;DHT22;24844;52.380;7.018;2024-01-30T03:57:03;7.60;99.90
39099;DHT22;24844;52.380;7.018;2024-01-30T03:59:29;7.60;99.90
39099;DHT22;24844;52.380;7.018;2024-01-30T04:01:54;7.60;99.90
39099;DHT22;24844;52.380;7.018;2024-01-30T04:04:20;7.60;99.90
39099;DHT22;24844;52.380;7.018;2024-01-30T04:06:46;7.60;99.90
39099;DHT22;24844;52.380;7.018;2024-01-30T04:09:13;7.70;99.90
39099;DHT22;24844;52.380;7.018;2024-01-30T04:11:39;7.60;99.90
39099;DHT22;24844;52.380;7.018;2024-01-30T04:14:05;7.50;99.90
39099;DHT22;24844;52.380;7.018;2024-01-30T04:16:30;7.60;99.90
39099;DHT22;24844;52.380;7.018;2024-01-30T04:18:56;7.60;99.90
39099;DHT22;24844;52.380;7.018;2024-01-30T04:21:22;7.60;99.90
39099;DHT22;24844;52.380;7.018;2024-01-30T04:23:48;7.70;99.90
39099;DHT22;24844;52.380;7.018;2024-01-30T04:26:14;7.70;99.90
39099;DHT22;24844;52.380;7.018;2024-01-30T04:28:42;7.70;99.90
39099;DHT22;24844;52.380;7.018;2024-01-30T04:31:07;7.70;99.90
39099;DHT22;24844;52.380;7.018;2024-01-30T04:33:33;7.80;99.90
39099;DHT22;24844;52.380;7.018;2024-01-30T04:35:59;7.90;99.90
39099;DHT22;24844;52.380;7.018;2024-01-30T04:38:25;8.10;99.90
39099;DHT22;24844;52.380;7.018;2024-01-30T04:40:50;8.10;99.90
39099;DHT22;24844;52.380;7.018;2024-01-30T04:43:16;7.90;99.90
39099;DHT22;24844;52.380;7.018;2024-01-30T04:45:41;7.70;99.90
39099;DHT22;24844;52.380;7.018;2024-01-30T04:48:07;7.50;99.90
39099;DHT22;24844;52.380;7.018;2024-01-30T04:50:33;7.40;99.90
39099;DHT22;24844;52.380;7.018;2024-01-30T04:52:58;7.30;99.90
39099;DHT22;24844;52.380;7.018;2024-01-30T04:55:24;7.40;99.90
39099;DHT22;24844;52.380;7.018;2024-01-30T04:57:50;7.40;99.90
39099;DHT22;24844;52.380;7.018;2024-01-30T05:00:15;7.40;99.90
39099;DHT22;24844;52.380;7.018;2024-01-30T05:02:41;7.50;99.90
39099;DHT22;24844;52.380;7.018;2024-01-30T05:05:07;7.50;99.90
39099;DHT22;24844;52.380;7.018;2024-01-30T05:07:33;7.50;99.90
39099;DHT22;24844;52.380;7.018;2024-01-30T05:09:59;7.50;99.90
39099;DHT22;24844;52.380;7.018;2024-01-30T05:12:25;7.50;99.90
39099;DHT22;24844;52.380;7.018;2024-01-30T05:14:51;7.50;99.90
39099;DHT22;24844;52.380;7.018;2024-01-30T05:17:17;7.50;99.90
39099;DHT22;24844;52.380;7.018;2024-01-30T05:19:43;7.60;99.90
39099;DHT22;24844;52.380;7.018;2024-01-30T05:22:09;7.70;99.90
39099;DHT22;24844;52.380;7.018;2024-01-30T05:24:35;7.60;99.90
39099;DHT22;24844;52.380;7.018;2024-01-30T05:27:00;7.60;99.90
39099;DHT22;24844;52.380;7.018;2024-01-30T05:29:27;7.60;99.90
39099;DHT22;24844;52.380;7.018;2024-01-30T05:31:52;7.60;99.90
39099;DHT22;24844;52.380;7.018;2024-01-30T05:34:18;7.60;99.90
39099;DHT22;24844;52.380;7.018;2024-01-30T05:36:43;7.60;99.90
39099;DHT22;24844;52.380;7.018;2024-01-30T05:39:09;7.50;99.90
39099;DHT22;24844;52.380;7.018;2024-01-30T05:41:35;7.50;99.90
39099;DHT22;24844;52.380;7.018;2024-01-30T05:44:01;7.50;99.90
39099;DHT22;24844;52.380;7.018;2024-01-30T05:46:27;7.50;99.90
39099;DHT22;24844;52.380;7.018;2024-01-30T05:48:52;7.60;99.90
39099;DHT22;24844;52.380;7.018;2024-01-30T05:51:18;7.50;99.90
39099;DHT22;24844;52.380;7.018;2024-01-30T05:53:44;7.60;99.90
39099;DHT22;24844;52.380;7.018;2024-01-30T05:56:09;7.60;99.90
39099;DHT22;24844;52.380;7.018;2024-01-30T05:58:35;7.60;99.90
39099;DHT22;24844;52.380;7.018;2024-01-30T06:01:03;7.60;99.90
39099;DHT22;24844;52.380;7.018;2024-01-30T06:03:31;7.60;99.90
39099;DHT22;24844;52.380;7.018;2024-01-30T06:05:57;7.70;99.90
39099;DHT22;24844;52.380;7.018;2024-01-30T06:08:23;7.70;99.90
39099;DHT22;24844;52.380;7.018;2024-01-30T06:10:48;7.60;99.90
39099;DHT22;24844;52.380;7.018;2024-01-30T06:13:14;7.70;99.90
39099;DHT22;24844;52.380;7.018;2024-01-30T06:15:40;7.70;99.90
39099;DHT22;24844;52.380;7.018;2024-01-30T06:18:05;7.80;99.90
39099;DHT22;24844;52.380;7.018;2024-01-30T06:20:31;7.90;99.90
39099;DHT22;24844;52.380;7.018;2024-01-30T06:22:56;7.90;99.90
39099;DHT22;24844;52.380;7.018;2024-01-30T06:25:22;7.90;99.90
39099;DHT22;24844;52.380;7.018;2024-01-30T06:27:48;8.00;99.90
39099;DHT22;24844;52.380;7.018;2024-01-30T06:30:14;8.10;99.90
39099;DHT22;24844;52.380;7.018;2024-01-30T06:32:39;8.10;99.90
39099;DHT22;24844;52.380;7.018;2024-01-30T06:35:05;8.20;99.90
39099;DHT22;24844;52.380;7.018;2024-01-30T06:37:31;8.30;99.90
39099;DHT22;24844;52.380;7.018;2024-01-30T06:39:57;8.40;99.90
39099;DHT22;24844;52.380;7.018;2024-01-30T06:42:22;8.40;99.90
39099;DHT22;24844;52.380;7.018;2024-01-30T06:44:48;8.40;99.90
39099;DHT22;24844;52.380;7.018;2024-01-30T06:47:13;8.40;99.90
39099;DHT22;24844;52.380;7.018;2024-01-30T06:49:39;8.50;99.90
39099;DHT22;24844;52.380;7.018;2024-01-30T06:52:07;8.40;99.90
39099;DHT22;24844;52.380;7.018;2024-01-30T06:54:33;8.40;99.90
39099;DHT22;24844;52.380;7.018;2024-01-30T06:56:59;8.50;99.90
39099;DHT22;24844;52.380;7.018;2024-01-30T06:59:24;8.50;99.90
39099;DHT22;24844;52.380;7.018;2024-01-30T07:01:50;8.60;99.90
39099;DHT22;24844;52.380;7.018;2024-01-30T07:04:15;8.60;99.90
39099;DHT22;24844;52.380;7.018;2024-01-30T07:06:41;8.60;99.90
39099;DHT22;24844;52.380;7.018;2024-01-30T07:09:07;8.60;99.90
39099;DHT22;24844;52.380;7.018;2024-01-30T07:11:33;8.60;99.90
39099;DHT22;24844;52.380;7.018;2024-01-30T07:13:59;8.70;99.90
39099;DHT22;24844;52.380;7.018;2024-01-30T07:16:25;8.80;99.90
39099;DHT22;24844;52.380;7.018;2024-01-30T07:18:51;9.00;99.90
39099;DHT22;24844;52.380;7.018;2024-01-30T07:21:16;9.00;99.90
39099;DHT22;24844;52.380;7.018;2024-01-30T07:23:42;8.90;99.90
39099;DHT22;24844;52.380;7.018;2024-01-30T07:26:08;8.90;99.90
39099;DHT22;24844;52.380;7.018;2024-01-30T07:28:34;8.80;99.90
39099;DHT22;24844;52.380;7.018;2024-01-30T07:31:01;8.90;99.90
39099;DHT22;24844;52.380;7.018;2024-01-30T07:33:27;9.00;99.90
39099;DHT22;24844;52.380;7.018;2024-01-30T07:35:53;9.00;99.90
39099;DHT22;24844;52.380;7.018;2024-01-30T07:38:19;9.20;99.90
39099;DHT22;24844;52.380;7.018;2024-01-30T07:40:44;9.10;99.90
39099;DHT22;24844;52.380;7.018;2024-01-30T07:43:10;9.10;99.90
39099;DHT22;24844;52.380;7.018;2024-01-30T07:45:35;9.10;99.90
39099;DHT22;24844;52.380;7.018;2024-01-30T07:48:03;9.20;99.90
39099;DHT22;24844;52.380;7.018;2024-01-30T07:50:28;9.20;99.90
39099;DHT22;24844;52.380;7.018;2024-01-30T07:52:55;9.10;99.90
39099;DHT22;24844;52.380;7.018;2024-01-30T07:55:22;9.10;99.90
39099;DHT22;24844;52.380;7.018;2024-01-30T07:57:53;9.10;99.90
39099;DHT22;24844;52.380;7.018;2024-01-30T08:00:20;9.10;99.90
39099;DHT22;24844;52.380;7.018;2024-01-30T08:02:55;9.10;99.90
39099;DHT22;24844;52.380;7.018;2024-01-30T08:05:21;9.20;99.90
39099;DHT22;24844;52.380;7.018;2024-01-30T08:07:48;9.30;99.90
39099;DHT22;24844;52.380;7.018;2024-01-30T08:10:14;9.30;99.90
39099;DHT22;24844;52.380;7.018;2024-01-30T08:12:41;9.30;99.90
39099;DHT22;24844;52.380;7.018;2024-01-30T08:15:07;9.40;99.90
39099;DHT22;24844;52.380;7.018;2024-01-30T08:17:33;9.50;99.90
39099;DHT22;24844;52.380;7.018;2024-01-30T08:19:58;9.60;99.90
39099;DHT22;24844;52.380;7.018;2024-01-30T08:22:24;9.70;99.90
39099;DHT22;24844;52.380;7.018;2024-01-30T08:24:50;9.80;99.90
39099;DHT22;24844;52.380;7.018;2024-01-30T08:27:15;9.70;99.90
39099;DHT22;24844;52.380;7.018;2024-01-30T08:29:41;9.80;99.90
39099;DHT22;24844;52.380;7.018;2024-01-30T08:32:07;10.00;99.90
39099;DHT22;24844;52.380;7.018;2024-01-30T08:34:33;9.90;99.90
39099;DHT22;24844;52.380;7.018;2024-01-30T08:36:58;9.80;99.90
39099;DHT22;24844;52.380;7.018;2024-01-30T08:39:24;10.00;99.90
39099;DHT22;24844;52.380;7.018;2024-01-30T08:41:50;10.00;99.90
39099;DHT22;24844;52.380;7.018;2024-01-30T08:44:16;10.00;99.90
39099;DHT22;24844;52.380;7.018;2024-01-30T08:46:43;10.30;99.90
39099;DHT22;24844;52.380;7.018;2024-01-30T08:49:08;10.40;99.90
39099;DHT22;24844;52.380;7.018;2024-01-30T08:51:34;10.50;99.90
39099;DHT22;24844;52.380;7.018;2024-01-30T08:53:59;10.50;99.90
39099;DHT22;24844;52.380;7.018;2024-01-30T08:56:25;10.70;99.90
39099;DHT22;24844;52.380;7.018;2024-01-30T08:58:51;10.70;99.90
39099;DHT22;24844;52.380;7.018;2024-01-30T09:01:16;10.90;99.90
39099;DHT22;24844;52.380;7.018;2024-01-30T09:03:42;10.90;99.90
39099;DHT22;24844;52.380;7.018;2024-01-30T09:06:11;11.00;99.90
39099;DHT22;24844;52.380;7.018;2024-01-30T09:08:37;11.10;99.90
39099;DHT22;24844;52.380;7.018;2024-01-30T09:11:10;11.20;99.90
39099;DHT22;24844;52.380;7.018;2024-01-30T09:13:36;11.30;99.90
39099;DHT22;24844;52.380;7.018;2024-01-30T09:16:01;11.00;99.90
39099;DHT22;24844;52.380;7.018;2024-01-30T09:18:27;11.20;99.90
39099;DHT22;24844;52.380;7.018;2024-01-30T09:20:52;11.10;99.90
39099;DHT22;24844;52.380;7.018;2024-01-30T09:23:18;11.30;99.90
39099;DHT22;24844;52.380;7.018;2024-01-30T09:25:45;11.20;99.90
39099;DHT22;24844;52.380;7.018;2024-01-30T09:28:10;11.30;99.90
39099;DHT22;24844;52.380;7.018;2024-01-30T09:30:36;11.40;99.90
39099;DHT22;24844;52.380;7.018;2024-01-30T09:33:02;11.50;99.90
39099;DHT22;24844;52.380;7.018;2024-01-30T09:35:27;11.50;99.90
39099;DHT22;24844;52.380;7.018;2024-01-30T09:37:53;11.40;99.90
39099;DHT22;24844;52.380;7.018;2024-01-30T09:40:19;11.60;99.90
39099;DHT22;24844;52.380;7.018;2024-01-30T09:42:50;11.70;99.90
39099;DHT22;24844;52.380;7.018;2024-01-30T09:45:18;11.60;99.90
39099;DHT22;24844;52.380;7.018;2024-01-30T09:47:44;11.70;99.90
39099;DHT22;24844;52.380;7.018;2024-01-30T09:50:15;11.80;99.90
39099;DHT22;24844;52.380;7.018;2024-01-30T09:52:40;11.90;99.90
39099;DHT22;24844;52.380;7.018;2024-01-30T09:55:07;12.10;99.90
39099;DHT22;24844;52.380;7.018;2024-01-30T09:57:34;12.10;99.90
39099;DHT22;24844;52.380;7.018;2024-01-30T09:59:59;12.10;99.90
39099;DHT22;24844;52.380;7.018;2024-01-30T10:02:25;12.20;99.90
39099;DHT22;24844;52.380;7.018;2024-01-30T10:04:51;12.40;99.90
39099;DHT22;24844;52.380;7.018;2024-01-30T10:07:20;12.50;99.90
39099;DHT22;24844;52.380;7.018;2024-01-30T10:09:46;13.00;99.90
39099;DHT22;24844;52.380;7.018;2024-01-30T10:12:12;12.60;99.90
39099;DHT22;24844;52.380;7.018;2024-01-30T10:14:39;12.60;99.90
39099;DHT22;24844;52.380;7.018;2024-01-30T10:17:05;12.80;99.90
39099;DHT22;24844;52.380;7.018;2024-01-30T10:19:31;13.20;99.90
39099;DHT22;24844;52.380;7.018;2024-01-30T10:21:57;13.20;99.90
39099;DHT22;24844;52.380;7.018;2024-01-30T10:24:28;13.10;99.90
39099;DHT22;24844;52.380;7.018;2024-01-30T10:26:57;13.10;99.90
39099;DHT22;24844;52.380;7.018;2024-01-30T10:29:22;12.90;99.90
39099;DHT22;24844;52.380;7.018;2024-01-30T10:32:06;12.60;99.90
39099;DHT22;24844;52.380;7.018;2024-01-30T10:34:32;12.90;99.90
39099;DHT22;24844;52.380;7.018;2024-01-30T10:37:08;12.90;99.90
39099;DHT22;24844;52.380;7.018;2024-01-30T10:39:38;12.90;99.90
39099;DHT22;24844;52.380;7.018;2024-01-30T10:42:05;12.90;99.90
39099;DHT22;24844;52.380;7.018;2024-01-30T10:44:56;12.90;99.90
39099;DHT22;24844;52.380;7.018;2024-01-30T10:47:27;13.00;99.90
39099;DHT22;24844;52.380;7.018;2024-01-30T10:49:54;13.20;99.90
39099;DHT22;24844;52.380;7.018;2024-01-30T10:52:20;13.10;99.90
39099;DHT22;24844;52.380;7.018;2024-01-30T10:54:46;13.30;99.90
39099;DHT22;24844;52.380;7.018;2024-01-30T10:57:13;13.30;99.90
39099;DHT22;24844;52.380;7.018;2024-01-30T10:59:41;13.20;99.90
39099;DHT22;24844;52.380;7.018;2024-01-30T11:02:07;12.70;99.90
39099;DHT22;24844;52.380;7.018;2024-01-30T11:04:58;12.80;99.90
39099;DHT22;24844;52.380;7.018;2024-01-30T11:07:26;12.70;99.90
39099;DHT22;24844;52.380;7.018;2024-01-30T11:12:25;12.80;99.90
39099;DHT22;24844;52.380;7.018;2024-01-30T11:17:29;13.30;99.90
39099;DHT22;24844;52.380;7.018;2024-01-30T11:20:04;13.30;99.90
39099;DHT22;24844;52.380;7.018;2024-01-30T11:22:30;13.10;99.90
39099;DHT22;24844;52.380;7.018;2024-01-30T11:24:56;13.20;99.90
39099;DHT22;24844;52.380;7.018;2024-01-30T11:27:22;13.00;99.90
39099;DHT22;24844;52.380;7.018;2024-01-30T11:29:50;12.90;99.90
39099;DHT22;24844;52.380;7.018;2024-01-30T11:32:22;13.00;99.90
39099;DHT22;24844;52.380;7.018;2024-01-30T11:34:49;13.10;99.90
39099;DHT22;24844;52.380;7.018;2024-01-30T11:37:16;13.40;99.90
39099;DHT22;24844;52.380;7.018;2024-01-30T11:39:46;13.40;99.90
39099;DHT22;24844;52.380;7.018;2024-01-30T11:42:12;13.30;99.90
39099;DHT22;24844;52.380;7.018;2024-01-30T11:44:38;13.40;99.90
39099;DHT22;24844;52.380;7.018;2024-01-30T11:47:04;13.50;99.90
39099;DHT22;24844;52.380;7.018;2024-01-30T11:49:30;13.50;99.90
39099;DHT22;24844;52.380;7.018;2024-01-30T11:51:56;13.50;99.90
39099;DHT22;24844;52.380;7.018;2024-01-30T11:54:21;13.60;99.90
39099;DHT22;24844;52.380;7.018;2024-01-30T11:56:47;13.70;99.90
39099;DHT22;24844;52.380;7.018;2024-01-30T11:59:14;14.00;99.90
39099;DHT22;24844;52.380;7.018;2024-01-30T12:01:39;13.90;99.90
39099;DHT22;24844;52.380;7.018;2024-01-30T12:04:05;14.00;99.90
39099;DHT22;24844;52.380;7.018;2024-01-30T12:06:34;14.00;99.90
39099;DHT22;24844;52.380;7.018;2024-01-30T12:09:01;14.20;99.90
39099;DHT22;24844;52.380;7.018;2024-01-30T12:11:30;13.90;99.90
39099;DHT22;24844;52.380;7.018;2024-01-30T12:13:56;13.50;99.90
39099;DHT22;24844;52.380;7.018;2024-01-30T12:16:22;13.70;99.90
39099;DHT22;24844;52.380;7.018;2024-01-30T12:18:48;13.70;99.90
39099;DHT22;24844;52.380;7.018;2024-01-30T12:21:16;13.50;99.90
39099;DHT22;24844;52.380;7.018;2024-01-30T12:23:43;13.60;99.90
39099;DHT22;24844;52.380;7.018;2024-01-30T12:26:08;13.70;99.90
39099;DHT22;24844;52.380;7.018;2024-01-30T12:28:35;14.10;99.90
39099;DHT22;24844;52.380;7.018;2024-01-30T12:31:04;14.00;99.90
39099;DHT22;24844;52.380;7.018;2024-01-30T12:33:30;13.90;99.90
39099;DHT22;24844;52.380;7.018;2024-01-30T12:35:56;14.40;99.90
39099;DHT22;24844;52.380;7.018;2024-01-30T12:38:24;14.00;99.90
39099;DHT22;24844;52.380;7.018;2024-01-30T12:40:54;14.00;99.90
39099;DHT22;24844;52.380;7.018;2024-01-30T12:43:21;13.80;99.90
39099;DHT22;24844;52.380;7.018;2024-01-30T12:45:47;13.60;99.90
39099;DHT22;24844;52.380;7.018;2024-01-30T12:48:12;13.50;99.90
39099;DHT22;24844;52.380;7.018;2024-01-30T12:50:38;13.60;99.90
39099;DHT22;24844;52.380;7.018;2024-01-30T12:53:04;13.50;99.90
39099;DHT22;24844;52.380;7.018;2024-01-30T12:55:30;13.60;99.90
39099;DHT22;24844;52.380;7.018;2024-01-30T12:57:55;13.60;99.90
39099;DHT22;24844;52.380;7.018;2024-01-30T13:00:21;13.90;99.90
39099;DHT22;24844;52.380;7.018;2024-01-30T13:02:48;13.70;99.90
39099;DHT22;24844;52.380;7.018;2024-01-30T13:05:14;13.90;99.90
39099;DHT22;24844;52.380;7.018;2024-01-30T13:07:39;13.80;99.90
39099;DHT22;24844;52.380;7.018;2024-01-30T13:10:05;13.80;99.90
39099;DHT22;24844;52.380;7.018;2024-01-30T13:12:31;13.90;99.90
39099;DHT22;24844;52.380;7.018;2024-01-30T13:14:59;13.90;99.90
39099;DHT22;24844;52.380;7.018;2024-01-30T13:17:30;13.90;99.90
39099;DHT22;24844;52.380;7.018;2024-01-30T13:19:56;13.70;99.90
39099;DHT22;24844;52.380;7.018;2024-01-30T13:22:21;13.90;99.90
39099;DHT22;24844;52.380;7.018;2024-01-30T13:24:47;14.20;99.90
39099;DHT22;24844;52.380;7.018;2024-01-30T13:27:13;14.20;99.90
39099;DHT22;24844;52.380;7.018;2024-01-30T13:29:39;14.30;99.90
39099;DHT22;24844;52.380;7.018;2024-01-30T13:32:05;14.20;99.90
39099;DHT22;24844;52.380;7.018;2024-01-30T13:34:31;14.20;99.90
39099;DHT22;24844;52.380;7.018;2024-01-30T13:36:56;14.20;99.90
39099;DHT22;24844;52.380;7.018;2024-01-30T13:39:22;14.10;99.90
39099;DHT22;24844;52.380;7.018;2024-01-30T13:41:48;14.00;99.90
39099;DHT22;24844;52.380;7.018;2024-01-30T13:44:15;14.20;99.90
39099;DHT22;24844;52.380;7.018;2024-01-30T13:46:42;14.20;99.90
39099;DHT22;24844;52.380;7.018;2024-01-30T13:49:07;14.40;99.90
39099;DHT22;24844;52.380;7.018;2024-01-30T13:51:33;14.20;99.90
39099;DHT22;24844;52.380;7.018;2024-01-30T13:53:58;14.30;99.90
39099;DHT22;24844;52.380;7.018;2024-01-30T13:56:24;14.50;99.90
39099;DHT22;24844;52.380;7.018;2024-01-30T13:58:52;14.20;99.90
39099;DHT22;24844;52.380;7.018;2024-01-30T14:01:18;14.20;99.90
39099;DHT22;24844;52.380;7.018;2024-01-30T14:03:43;14.00;99.90
39099;DHT22;24844;52.380;7.018;2024-01-30T14:06:09;13.70;99.90
39099;DHT22;24844;52.380;7.018;2024-01-30T14:08:35;13.70;99.90
39099;DHT22;24844;52.380;7.018;2024-01-30T14:11:00;13.80;99.90
39099;DHT22;24844;52.380;7.018;2024-01-30T14:13:26;13.60;99.90
39099;DHT22;24844;52.380;7.018;2024-01-30T14:15:52;13.80;99.90
39099;DHT22;24844;52.380;7.018;2024-01-30T14:18:18;13.70;99.90
39099;DHT22;24844;52.380;7.018;2024-01-30T14:20:44;13.80;99.90
39099;DHT22;24844;52.380;7.018;2024-01-30T14:23:09;14.00;99.90
39099;DHT22;24844;52.380;7.018;2024-01-30T14:25:35;14.20;99.90
39099;DHT22;24844;52.380;7.018;2024-01-30T14:28:00;14.10;99.90
39099;DHT22;24844;52.380;7.018;2024-01-30T14:30:26;13.70;99.90
39099;DHT22;24844;52.380;7.018;2024-01-30T14:32:51;13.90;99.90
39099;DHT22;24844;52.380;7.018;2024-01-30T14:35:17;13.70;99.90
39099;DHT22;24844;52.380;7.018;2024-01-30T14:37:42;13.50;99.90
39099;DHT22;24844;52.380;7.018;2024-01-30T14:40:08;13.10;99.90
39099;DHT22;24844;52.380;7.018;2024-01-30T14:42:34;13.10;99.90
39099;DHT22;24844;52.380;7.018;2024-01-30T14:45:01;13.00;99.90
39099;DHT22;24844;52.380;7.018;2024-01-30T14:47:27;13.10;99.90
39099;DHT22;24844;52.380;7.018;2024-01-30T14:49:53;13.10;99.90
39099;DHT22;24844;52.380;7.018;2024-01-30T14:52:18;13.30;99.90
39099;DHT22;24844;52.380;7.018;2024-01-30T14:54:44;13.20;99.90
39099;DHT22;24844;52.380;7.018;2024-01-30T14:57:09;13.10;99.90
39099;DHT22;24844;52.380;7.018;2024-01-30T14:59:36;12.70;99.90
39099;DHT22;24844;52.380;7.018;2024-01-30T15:02:01;12.60;99.90
39099;DHT22;24844;52.380;7.018;2024-01-30T15:04:27;12.50;99.90
39099;DHT22;24844;52.380;7.018;2024-01-30T15:06:53;12.30;99.90
39099;DHT22;24844;52.380;7.018;2024-01-30T15:09:19;12.40;99.90
39099;DHT22;24844;52.380;7.018;2024-01-30T15:11:46;12.30;99.90
39099;DHT22;24844;52.380;7.018;2024-01-30T15:14:12;12.30;99.90
39099;DHT22;24844;52.380;7.018;2024-01-30T15:16:38;12.50;99.90
39099;DHT22;24844;52.380;7.018;2024-01-30T15:19:04;12.30;99.90
39099;DHT22;24844;52.380;7.018;2024-01-30T15:21:30;12.10;99.90
39099;DHT22;24844;52.380;7.018;2024-01-30T15:23:56;12.00;99.90
39099;DHT22;24844;52.380;7.018;2024-01-30T15:26:21;12.00;99.90
39099;DHT22;24844;52.380;7.018;2024-01-30T15:28:47;12.00;99.90
39099;DHT22;24844;52.380;7.018;2024-01-30T15:31:13;12.30;99.90
39099;DHT22;24844;52.380;7.018;2024-01-30T15:33:38;12.00;99.90
39099;DHT22;24844;52.380;7.018;2024-01-30T15:36:04;12.30;99.90
39099;DHT22;24844;52.380;7.018;2024-01-30T15:38:30;12.10;99.90